Baltimore, Maryland
Traffic Map
Current Weather Conditions
Baltimore, Maryland
Broken Clouds
Broken Clouds

Feels Like: 1°
Wind Chill: Ceiling: 6500
Heat Index: Visibility: 9mi
Dew Point: -5° Wind: 0mph
Humidity: 66% Direction: ° ()
Pressure: 30.35in Gusts: 0mph
Raw Report DataKBWI 211354Z 00000KT 9SM BKN065 BKN080 01/M05 A3035 RMK AO2 SLP278 T00061050
Traffic Incident Summary
Active as of:
Severity:
Category:
InformationThere was an issue retrieving the traffic information for this location. Please try a different location or try again shortly.
Advertisements
Track Severe Weather on mobile